Flight Track Log - Related Links

Times and Time Zones

All times are in EDT time to prevent confusion due to time zone crossing. See the CHQ5022 flight status page for this flight to view local times or setup timezone preferences in your user account.

Time Position Orientation Groundspeed Altitude Reporting Facility
EDT Latitude Longitude Course Direction KTS MPH feet Rate Location/Type
01:34PM 41.9692 -87.8533 176° South 168 193 2,400  Level Chicago Center
01:35PM 41.9058 -87.8481 176° South 223 257 4,500 2,129 Climbing Chicago Center
01:36PM 41.6507 -87.7071 166° South  Level Estimated
01:36PM 41.8294 -87.8425 177° South 262 302 6,800  Level Chicago Center
01:37PM 41.5403 -87.6410 167° South  Level Estimated
01:37PM 41.7478 -87.8383 178° South 288 331 9,300  Level Chicago Center
01:38PM 41.4299 -87.5752 180° South  Level Estimated
01:39PM 41.3194 -87.5095 180° South  Level Estimated
01:39PM 41.6408 -87.8028 166° South 329 379 11,500  Level Chicago Center
01:40PM 41.2308 -87.4570 176° South  Level Estimated
01:40PM 41.5475 -87.7711 166° South 342 394 13,900  Level Chicago Center
01:41PM 41.4544 -87.7567 173° South 338 389 15,900 1,500 Climbing Chicago Center
01:42PM 41.3539 -87.7586 181° South 356 410 17,000 1,452 Climbing Chicago Center
01:43PM 41.2492 -87.7403 173° South 376 433 18,900 1,597 Climbing Chicago Center
01:44PM 41.1425 -87.7158 170° South 386 444 20,300 1,161 Climbing Chicago Center
01:45PM 41.0294 -87.6792 166° South 412 474 21,300 1,016 Climbing Chicago Center
01:46PM 40.8853 -87.6381 168° South 437 503 22,400 968 Climbing Chicago Center
01:47PM 40.7606 -87.6014 167° South 452 520 23,300 864 Climbing Chicago Center
01:48PM 40.6331 -87.5661 168° South 467 537 24,200 768 Climbing Chicago Center
01:49PM 40.5058 -87.5306 168° South 468 539 24,900 387 Climbing Chicago Center
01:50PM 40.3731 -87.4961 169° South 481 554 25,000 48 Climbing Chicago Center
01:51PM 40.2114 -87.4497 168° South 493 567 25,000  Level Chicago Center
01:52PM 40.0772 -87.4131 168° South 495 570 25,000  Level Chicago Center
01:52PM 40.0014 -87.3889 166° South 496 571 25,000 -457 Level Indianapolis Center
01:53PM 39.8658 -87.3528 168° South 496 571 24,300 -780 Descending Indianapolis Center
01:55PM 39.7331 -87.3150 168° South 490 564 23,400 -634 Descending Indianapolis Center
01:56PM 39.5986 -87.2792 168° South 490 564 23,000 -195 Descending Indianapolis Center
01:57PM 39.4653 -87.2414 168° South 487 560 23,000  Level Indianapolis Center
01:58PM 39.3358 -87.1839 161° South 490 564 23,000  Level Indianapolis Center
01:59PM 39.2061 -87.1253 161° South 492 566 23,000  Level Indianapolis Center
02:00PM 39.0819 -87.0506 155° Southeast 492 566 23,000 -683 Level Indianapolis Center
02:01PM 38.9581 -86.9714 154° Southeast 494 568 21,600 -2,098 Descending Indianapolis Center
02:02PM 38.8397 -86.8961 154° Southeast 475 547 18,700 -2,780 Descending Indianapolis Center
02:03PM 38.7439 -86.7953 141° Southeast 450 518 15,900 -2,976 Descending Indianapolis Center
02:04PM 38.6667 -86.6436 123° Southeast 425 489 12,600 -2,508 Descending Indianapolis Center
02:05PM 38.6042 -86.5244 124° Southeast 410 472 10,800 -1,171 Descending Indianapolis Center
02:06PM 38.5461 -86.4194 125° Southeast 384 442 10,200 -1,122 Descending Indianapolis Center
02:07PM 38.4975 -86.3286 124° Southeast 335 386 8,500 -1,659 Descending Indianapolis Center
02:08PM 38.4503 -86.2419 125° Southeast 312 359 6,800 -1,220 Descending Indianapolis Center
02:09PM 38.4047 -86.1586 125° Southeast 298 343 6,000 -390 Descending Indianapolis Center
02:10PM 38.3597 -86.0750 124° Southeast 290 334 6,000  Level Indianapolis Center
02:11PM 38.3153 -85.9936 125° Southeast 285 328 6,000  Level Indianapolis Center
02:12PM 38.2547 -85.9311 141° Southeast 286 329 6,000 -683 Level Indianapolis Center
02:13PM 38.1864 -85.8764 148° Southeast 288 331 4,600 -1,220 Descending Indianapolis Center
02:14PM 38.1217 -85.8228 147° Southeast 284 327 3,500 -774 Descending Indianapolis Center
02:15PM 38.0564 -85.7794 152° Southeast 276 318 3,000 -439 Descending Indianapolis Center
02:16PM 38.0350 -85.7164 113° Southeast 253 291 2,600 -393 Descending Indianapolis Center

Login

Don't have an account? Register now (free) for customized features, flight alerts, and more!